Seven Seas Mariner — C6VV8 — position and weather

sailwx.info

Track history (hours):
 
Tides and Currents Weather Stations Pressure Air Temp Water Temp Dewpoint Dewpoint Depression Visibility Wind Speed Wind Dir Waves Ship Positions

Seven Seas Mariner

Last reported at 2020-Jul-14 06:58 UTC. Time now 2020-Jul-14 13:30 UTC.
Position N 33°45' W 118°11'.

Length 216 m; draft 7 m.

Type: Passenger vessel. MMSI: 311622000.

Date/timePositionNaut miles runAvg speedWind from/ knotsBaromVisibWave heightAir tempDewpointWater temp
2020-Jul-14 06:58N 33°45' W 118°11'0 0.0
2020-Jul-14 06:25N 33°45' W 118°11'0 0.0
2020-Jul-14 04:58N 33°45' W 118°11'0 0.0
2020-Jul-14 03:28N 33°45' W 118°11'0 0.0
2020-Jul-14 02:28N 33°45' W 118°11'0 0.0
2020-Jul-14 01:28N 33°45' W 118°11'0 0.0
2020-Jul-14 00:28N 33°45' W 118°11'0 0.0
2020-Jul-13 17:58N 33°45' W 118°11'0 0.0
2020-Jul-13 16:58N 33°45' W 118°11'0 0.0
2020-Jul-13 13:28N 33°45' W 118°11'0 0.1
2020-Jul-13 12:58N 33°45' W 118°11'0 0.0
2020-Jul-13 07:58N 33°45' W 118°11'0 0.0
2020-Jul-13 02:58N 33°45' W 118°11'37 8.4
2020-Jul-12 22:30N 33°08' W 118°02'5 9.8
2020-Jul-12 22:00N 33°03' W 118°02'27 9.0
2020-Jul-12 19:00N 32°37' W 118°11'5 9.7
2020-Jul-12 18:30N 32°36' W 118°17'37 9.2
2020-Jul-12 14:30N 32°44' W 118°59'1010.0
2020-Jul-12 13:29N 32°49' W 119°10'1010.4
2020-Jul-12 12:30N 32°53' W 119°21'1510.3
2020-Jul-12 11:00N 32°59' W 119°38'34 9.6
2020-Jul-12 07:30N 33°21' W 120°08'25 9.8
2020-Jul-12 05:00N 33°39' W 120°28'5210.1
2020-Jul-11 23:50N 34°19' W 121°09'3711.8
2020-Jul-11 20:41N 34°49' W 121°36'9810.1
2020-Jul-11 11:00N 36°20' W 122°20'2110.3
2020-Jul-11 09:00N 36°39' W 122°29'1410.0
2020-Jul-11 07:38N 36°52' W 122°35'4110.0
2020-Jul-11 03:30N 37°33' W 122°44'510.0
2020-Jul-11 03:00N 37°38' W 122°44'510.3
2020-Jul-11 02:30N 37°43' W 122°41'510.8
2020-Jul-11 02:00N 37°46' W 122°37'1312.9
2020-Jul-11 01:00N 37°48' W 122°20'3 1.1
2020-Jul-10 22:29N 37°48' W 122°17'0 0.0
2020-Jul-10 19:29N 37°48' W 122°17'0 0.0
2020-Jul-10 18:59N 37°48' W 122°17'0 0.0
2020-Jul-10 15:59N 37°48' W 122°17'0 0.0
2020-Jul-10 14:59N 37°48' W 122°17'0 0.0
2020-Jul-10 13:29N 37°48' W 122°17'0 0.0
2020-Jul-10 11:59N 37°48' W 122°17'0 0.0
2020-Jul-10 10:59N 37°48' W 122°17'0 0.0
2020-Jul-10 08:29N 37°48' W 122°17'0 0.0
2020-Jul-10 06:29N 37°48' W 122°17'0 0.0
2020-Jul-10 06:00N 37°48' W 122°17'0 0.0
2020-Jul-10 05:30N 37°48' W 122°17'0 0.0
2020-Jul-10 02:29N 37°48' W 122°17'0 0.0
2020-Jul-10 01:59N 37°48' W 122°17'0 0.0
2020-Jul-10 01:29N 37°48' W 122°17'0 0.0
2020-Jul-10 00:59N 37°48' W 122°17'0 0.0
2020-Jul-10 00:29N 37°48' W 122°17'0 0.0
2020-Jul-09 21:59N 37°48' W 122°17'0 0.0
2020-Jul-09 19:59N 37°48' W 122°17'0 0.0
2020-Jul-09 15:59N 37°48' W 122°17'0 0.0
2020-Jul-09 14:59N 37°48' W 122°17'0 0.0
2020-Jul-09 13:59N 37°48' W 122°17'0 0.0
2020-Jul-09 12:30N 37°48' W 122°17'0 0.0
2020-Jul-09 11:59N 37°48' W 122°17'0 0.0
2020-Jul-09 11:30N 37°48' W 122°17'0 0.0
2020-Jul-09 10:26N 37°48' W 122°17'0 0.0
2020-Jul-09 08:59N 37°48' W 122°17'0 0.0
2020-Jul-09 08:30N 37°48' W 122°17'0 0.0
2020-Jul-09 06:59N 37°48' W 122°17'0 0.0
2020-Jul-09 05:59N 37°48' W 122°17'0 0.0
2020-Jul-09 03:00N 37°48' W 122°17'0 0.0
2020-Jul-08 21:59N 37°48' W 122°17'0 0.0
2020-Jul-08 20:29N 37°48' W 122°17'0 0.0
2020-Jul-08 17:29N 37°48' W 122°17'0 0.0
2020-Jul-08 16:59N 37°48' W 122°17'0 0.0
2020-Jul-08 15:29N 37°48' W 122°17'0 0.0
2020-Jul-08 13:59N 37°48' W 122°17'0 0.0
2020-Jul-08 13:29N 37°48' W 122°17'0 0.0
2020-Jul-08 12:59N 37°48' W 122°17'0 0.0
2020-Jul-08 12:29N 37°48' W 122°17'0 0.0
2020-Jul-08 10:59N 37°48' W 122°17'0 0.0
2020-Jul-08 05:29N 37°48' W 122°17'0 0.0
2020-Jul-08 02:59N 37°48' W 122°17'0 0.0
2020-Jul-07 22:59N 37°48' W 122°17'0 0.0
2020-Jul-07 21:59N 37°48' W 122°17'0 0.0
2020-Jul-07 20:29N 37°48' W 122°17'0 0.0
2020-Jul-07 18:29N 37°48' W 122°17'0 0.0
2020-Jul-07 15:59N 37°48' W 122°17'0 0.0
2020-Jul-07 14:59N 37°48' W 122°17'0 0.0
2020-Jul-07 13:59N 37°48' W 122°17'0 0.0
2020-Jul-07 13:00N 37°48' W 122°17'0 0.0
2020-Jul-07 11:29N 37°48' W 122°17'0 0.0
2020-Jul-07 10:59N 37°48' W 122°17'0 0.0
2020-Jul-07 07:29N 37°48' W 122°17'0 0.0
2020-Jul-07 05:30N 37°48' W 122°17'0 0.0
2020-Jul-07 04:59N 37°48' W 122°17'0 0.0
2020-Jul-07 03:29N 37°48' W 122°17'0 0.0
2020-Jul-07 03:00N 37°48' W 122°17'0 0.0
2020-Jul-06 23:59N 37°48' W 122°17'0 0.0
2020-Jul-06 22:29N 37°48' W 122°17'0 0.0
2020-Jul-06 18:59N 37°48' W 122°17'0 0.0
2020-Jul-06 18:29N 37°48' W 122°17'0 0.0
2020-Jul-06 17:29N 37°48' W 122°17'0 0.0
2020-Jul-06 16:59N 37°48' W 122°17'0 0.0
2020-Jul-06 11:58N 37°48' W 122°17'0 0.0
2020-Jul-06 10:58N 37°48' W 122°17'0 0.0
2020-Jul-06 10:00N 37°48' W 122°17'0 0.0
2020-Jul-06 09:30N 37°48' W 122°17'0 0.0
2020-Jul-06 08:27N 37°48' W 122°17'0 0.0
2020-Jul-06 08:00N 37°48' W 122°17'0 0.0
2020-Jul-06 04:30N 37°48' W 122°17'0 0.0
2020-Jul-06 03:00N 37°48' W 122°17'0 0.0
2020-Jul-06 02:30N 37°48' W 122°17'0 0.0
2020-Jul-06 01:30N 37°48' W 122°17'0 0.0
2020-Jul-05 22:00N 37°48' W 122°17'0 0.0
2020-Jul-05 20:00N 37°48' W 122°17'0 0.0
2020-Jul-05 16:00N 37°48' W 122°17'0 0.0
2020-Jul-05 15:30N 37°48' W 122°17'0 0.0
2020-Jul-05 12:30N 37°48' W 122°17'0 0.0
2020-Jul-05 10:24N 37°48' W 122°17'0 0.0
2020-Jul-05 05:30N 37°48' W 122°17'0 0.0
2020-Jul-05 04:00N 37°48' W 122°17'0 0.0
2020-Jul-05 03:00N 37°48' W 122°17'0 0.0
2020-Jul-05 02:00N 37°48' W 122°17'0 0.0
2020-Jul-04 22:30N 37°48' W 122°17'0 0.0
2020-Jul-04 20:00N 37°48' W 122°17'0 0.0
2020-Jul-04 19:30N 37°48' W 122°17'0 0.0
2020-Jul-04 18:30N 37°48' W 122°17'0 0.0
2020-Jul-04 12:30N 37°48' W 122°17'0 0.0
2020-Jul-04 11:30N 37°48' W 122°17'  
Track history (hours):
 
Tides and Currents Weather Stations Pressure Air Temp Water Temp Dewpoint Dewpoint Depression Visibility Wind Speed Wind Dir Waves Ship Positions

Seven Seas Mariner

Last reported at 2020-Jul-14 06:58 UTC. Time now 2020-Jul-14 13:30 UTC.
Position N 33°45' W 118°11'.

Length 216 m; draft 7 m.

Type: Passenger vessel. MMSI: 311622000.

Date/timePositionNaut miles runAvg speedWind from/ knotsBaromVisibWave heightAir tempDewpointWater temp
2020-Jul-14 06:58N 33°45' W 118°11'0 0.0
2020-Jul-14 06:25N 33°45' W 118°11'0 0.0
2020-Jul-14 04:58N 33°45' W 118°11'0 0.0
2020-Jul-14 03:28N 33°45' W 118°11'0 0.0
2020-Jul-14 02:28N 33°45' W 118°11'0 0.0
2020-Jul-14 01:28N 33°45' W 118°11'0 0.0
2020-Jul-14 00:28N 33°45' W 118°11'0 0.0
2020-Jul-13 17:58N 33°45' W 118°11'0 0.0
2020-Jul-13 16:58N 33°45' W 118°11'0 0.0
2020-Jul-13 13:28N 33°45' W 118°11'0 0.1
2020-Jul-13 12:58N 33°45' W 118°11'0 0.0
2020-Jul-13 07:58N 33°45' W 118°11'0 0.0
2020-Jul-13 02:58N 33°45' W 118°11'37 8.4
2020-Jul-12 22:30N 33°08' W 118°02'5 9.8
2020-Jul-12 22:00N 33°03' W 118°02'27 9.0
2020-Jul-12 19:00N 32°37' W 118°11'5 9.7
2020-Jul-12 18:30N 32°36' W 118°17'37 9.2
2020-Jul-12 14:30N 32°44' W 118°59'1010.0
2020-Jul-12 13:29N 32°49' W 119°10'1010.4
2020-Jul-12 12:30N 32°53' W 119°21'1510.3
2020-Jul-12 11:00N 32°59' W 119°38'34 9.6
2020-Jul-12 07:30N 33°21' W 120°08'25 9.8
2020-Jul-12 05:00N 33°39' W 120°28'5210.1
2020-Jul-11 23:50N 34°19' W 121°09'3711.8
2020-Jul-11 20:41N 34°49' W 121°36'9810.1
2020-Jul-11 11:00N 36°20' W 122°20'2110.3
2020-Jul-11 09:00N 36°39' W 122°29'1410.0
2020-Jul-11 07:38N 36°52' W 122°35'4110.0
2020-Jul-11 03:30N 37°33' W 122°44'510.0
2020-Jul-11 03:00N 37°38' W 122°44'510.3
2020-Jul-11 02:30N 37°43' W 122°41'510.8
2020-Jul-11 02:00N 37°46' W 122°37'1312.9
2020-Jul-11 01:00N 37°48' W 122°20'3 1.1
2020-Jul-10 22:29N 37°48' W 122°17'0 0.0
2020-Jul-10 19:29N 37°48' W 122°17'0 0.0
2020-Jul-10 18:59N 37°48' W 122°17'0 0.0
2020-Jul-10 15:59N 37°48' W 122°17'0 0.0
2020-Jul-10 14:59N 37°48' W 122°17'0 0.0
2020-Jul-10 13:29N 37°48' W 122°17'0 0.0
2020-Jul-10 11:59N 37°48' W 122°17'0 0.0
2020-Jul-10 10:59N 37°48' W 122°17'0 0.0
2020-Jul-10 08:29N 37°48' W 122°17'0 0.0
2020-Jul-10 06:29N 37°48' W 122°17'0 0.0
2020-Jul-10 06:00N 37°48' W 122°17'0 0.0
2020-Jul-10 05:30N 37°48' W 122°17'0 0.0
2020-Jul-10 02:29N 37°48' W 122°17'0 0.0
2020-Jul-10 01:59N 37°48' W 122°17'0 0.0
2020-Jul-10 01:29N 37°48' W 122°17'0 0.0
2020-Jul-10 00:59N 37°48' W 122°17'0 0.0
2020-Jul-10 00:29N 37°48' W 122°17'0 0.0
2020-Jul-09 21:59N 37°48' W 122°17'0 0.0
2020-Jul-09 19:59N 37°48' W 122°17'0 0.0
2020-Jul-09 15:59N 37°48' W 122°17'0 0.0
2020-Jul-09 14:59N 37°48' W 122°17'0 0.0
2020-Jul-09 13:59N 37°48' W 122°17'0 0.0
2020-Jul-09 12:30N 37°48' W 122°17'0 0.0
2020-Jul-09 11:59N 37°48' W 122°17'0 0.0
2020-Jul-09 11:30N 37°48' W 122°17'0 0.0
2020-Jul-09 10:26N 37°48' W 122°17'0 0.0
2020-Jul-09 08:59N 37°48' W 122°17'0 0.0
2020-Jul-09 08:30N 37°48' W 122°17'0 0.0
2020-Jul-09 06:59N 37°48' W 122°17'0 0.0
2020-Jul-09 05:59N 37°48' W 122°17'0 0.0
2020-Jul-09 03:00N 37°48' W 122°17'0 0.0
2020-Jul-08 21:59N 37°48' W 122°17'0 0.0
2020-Jul-08 20:29N 37°48' W 122°17'0 0.0
2020-Jul-08 17:29N 37°48' W 122°17'0 0.0
2020-Jul-08 16:59N 37°48' W 122°17'0 0.0
2020-Jul-08 15:29N 37°48' W 122°17'0 0.0
2020-Jul-08 13:59N 37°48' W 122°17'0 0.0
2020-Jul-08 13:29N 37°48' W 122°17'0 0.0
2020-Jul-08 12:59N 37°48' W 122°17'0 0.0
2020-Jul-08 12:29N 37°48' W 122°17'0 0.0
2020-Jul-08 10:59N 37°48' W 122°17'0 0.0
2020-Jul-08 05:29N 37°48' W 122°17'0 0.0
2020-Jul-08 02:59N 37°48' W 122°17'0 0.0
2020-Jul-07 22:59N 37°48' W 122°17'0 0.0
2020-Jul-07 21:59N 37°48' W 122°17'0 0.0
2020-Jul-07 20:29N 37°48' W 122°17'0 0.0
2020-Jul-07 18:29N 37°48' W 122°17'0 0.0
2020-Jul-07 15:59N 37°48' W 122°17'0 0.0
2020-Jul-07 14:59N 37°48' W 122°17'0 0.0
2020-Jul-07 13:59N 37°48' W 122°17'0 0.0
2020-Jul-07 13:00N 37°48' W 122°17'0 0.0
2020-Jul-07 11:29N 37°48' W 122°17'0 0.0
2020-Jul-07 10:59N 37°48' W 122°17'0 0.0
2020-Jul-07 07:29N 37°48' W 122°17'0 0.0
2020-Jul-07 05:30N 37°48' W 122°17'0 0.0
2020-Jul-07 04:59N 37°48' W 122°17'0 0.0
2020-Jul-07 03:29N 37°48' W 122°17'0 0.0
2020-Jul-07 03:00N 37°48' W 122°17'0 0.0
2020-Jul-06 23:59N 37°48' W 122°17'0 0.0
2020-Jul-06 22:29N 37°48' W 122°17'0 0.0
2020-Jul-06 18:59N 37°48' W 122°17'0 0.0
2020-Jul-06 18:29N 37°48' W 122°17'0 0.0
2020-Jul-06 17:29N 37°48' W 122°17'0 0.0
2020-Jul-06 16:59N 37°48' W 122°17'0 0.0
2020-Jul-06 11:58N 37°48' W 122°17'0 0.0
2020-Jul-06 10:58N 37°48' W 122°17'0 0.0
2020-Jul-06 10:00N 37°48' W 122°17'0 0.0
2020-Jul-06 09:30N 37°48' W 122°17'0 0.0
2020-Jul-06 08:27N 37°48' W 122°17'0 0.0
2020-Jul-06 08:00N 37°48' W 122°17'0 0.0
2020-Jul-06 04:30N 37°48' W 122°17'0 0.0
2020-Jul-06 03:00N 37°48' W 122°17'0 0.0
2020-Jul-06 02:30N 37°48' W 122°17'0 0.0
2020-Jul-06 01:30N 37°48' W 122°17'0 0.0
2020-Jul-05 22:00N 37°48' W 122°17'0 0.0
2020-Jul-05 20:00N 37°48' W 122°17'0 0.0
2020-Jul-05 16:00N 37°48' W 122°17'0 0.0
2020-Jul-05 15:30N 37°48' W 122°17'0 0.0
2020-Jul-05 12:30N 37°48' W 122°17'0 0.0
2020-Jul-05 10:24N 37°48' W 122°17'0 0.0
2020-Jul-05 05:30N 37°48' W 122°17'0 0.0
2020-Jul-05 04:00N 37°48' W 122°17'0 0.0
2020-Jul-05 03:00N 37°48' W 122°17'0 0.0
2020-Jul-05 02:00N 37°48' W 122°17'0 0.0
2020-Jul-04 22:30N 37°48' W 122°17'0 0.0
2020-Jul-04 20:00N 37°48' W 122°17'0 0.0
2020-Jul-04 19:30N 37°48' W 122°17'0 0.0
2020-Jul-04 18:30N 37°48' W 122°17'0 0.0
2020-Jul-04 12:30N 37°48' W 122°17'0 0.0
2020-Jul-04 11:30N 37°48' W 122°17'  

Dump ship's entire track history